Time;durP1;ratioP1;P1;durP2;ratioP2;P2;SDS_P1;SDS_P2;PMS_P1;PMS_P2;Temp;Humidity;BMP_temperature;BMP_pressure;BME280_temperature;BME280_humidity;BME280_pressure;Samples;Min_cycle;Max_cycle;Signal;HPM_P1;HPM_P2
2022/10/16 00:01:14;;;;;;;15.20;4.60;;;;;;;;;;4966296;28;20187;-73
2022/10/16 00:03:40;;;;;;;15.80;5.45;;;;;;;;;;4958892;28;20064;-75
2022/10/16 00:06:08;;;;;;;14.80;4.68;;;;;;;;;;4957237;28;21152;-75
2022/10/16 00:08:34;;;;;;;15.25;4.25;;;;;;;;;;4957906;28;20632;-73
2022/10/16 00:11:00;;;;;;;9.32;2.80;;;;;;;;;;4959266;28;20035;-75
2022/10/16 00:13:26;;;;;;;11.25;3.63;;;;;;;;;;4959440;28;20863;-74
2022/10/16 00:15:57;;;;;;;9.25;2.53;;;;;;;;;;4957836;28;20797;-75
2022/10/16 00:18:23;;;;;;;6.35;2.75;;;;;;;;;;4956224;28;20034;-76
2022/10/16 00:20:51;;;;;;;7.78;3.28;;;;;;;;;;4957773;28;20030;-76
2022/10/16 00:23:16;;;;;;;9.48;3.70;;;;;;;;;;4956889;28;20049;-76
2022/10/16 00:25:42;;;;;;;6.65;2.72;;;;;;;;;;4974252;28;20069;-74
2022/10/16 00:28:08;;;;;;;8.70;2.97;;;;;;;;;;4957090;28;20470;-75
2022/10/16 00:30:33;;;;;;;10.27;3.42;;;;;;;;;;4959716;28;20038;-75
2022/10/16 00:32:58;;;;;;;9.80;3.60;;;;;;;;;;4967235;28;20038;-75
2022/10/16 00:35:26;;;;;;;20.13;4.68;;;;;;;;;;4943461;28;20109;-75
2022/10/16 00:37:51;;;;;;;15.32;4.47;;;;;;;;;;4945054;28;20645;-75
2022/10/16 00:40:17;;;;;;;26.30;5.18;;;;;;;;;;4959366;28;20030;-74
2022/10/16 00:42:45;;;;;;;16.83;6.30;;;;;;;;;;4972241;28;20127;-75
2022/10/16 00:45:11;;;;;;;22.45;5.60;;;;;;;;;;4957858;28;20038;-76
2022/10/16 00:47:38;;;;;;;26.05;5.63;;;;;;;;;;4971665;28;20061;-74
2022/10/16 00:50:18;;;;;;;21.05;5.88;;;;;;;;;;4957596;28;20056;-75
2022/10/16 00:52:51;;;;;;;31.05;7.25;;;;;;;;;;4958489;28;20035;-75
2022/10/16 00:55:19;;;;;;;21.63;5.85;;;;;;;;;;4955940;28;20046;-72
2022/10/16 00:57:45;;;;;;;19.27;5.90;;;;;;;;;;4959877;28;20135;-76
2022/10/16 01:00:11;;;;;;;19.17;6.47;;;;;;;;;;4972044;28;20081;-76
2022/10/16 01:02:36;;;;;;;15.60;4.70;;;;;;;;;;4958597;28;20140;-75
2022/10/16 01:05:02;;;;;;;11.57;3.42;;;;;;;;;;4955397;28;20049;-75
2022/10/16 01:07:37;;;;;;;16.15;5.85;;;;;;;;;;4974154;28;20045;-74
2022/10/16 01:10:07;;;;;;;13.23;5.53;;;;;;;;;;4956495;28;20056;-74
2022/10/16 01:12:35;;;;;;;8.05;2.78;;;;;;;;;;4958194;28;20049;-75
2022/10/16 01:15:26;;;;;;;11.45;3.50;;;;;;;;;;4958794;28;20850;-75
2022/10/16 01:18:20;;;;;;;9.93;1.90;;;;;;;;;;4952066;28;20509;-75
2022/10/16 01:20:51;;;;;;;15.60;4.57;;;;;;;;;;4954698;28;20047;-75
2022/10/16 01:23:26;;;;;;;11.90;2.60;;;;;;;;;;4957466;28;20136;-76
2022/10/16 01:26:12;;;;;;;9.85;2.60;;;;;;;;;;4957139;28;20597;-76
2022/10/16 01:28:52;;;;;;;13.63;2.75;;;;;;;;;;4958482;28;20041;-75
2022/10/16 01:31:19;;;;;;;11.30;2.00;;;;;;;;;;4955811;28;20034;-76
2022/10/16 01:33:47;;;;;;;10.85;1.95;;;;;;;;;;4956399;28;21660;-76
2022/10/16 01:36:19;;;;;;;12.57;2.47;;;;;;;;;;4954897;28;20140;-74
2022/10/16 01:38:46;;;;;;;16.00;2.17;;;;;;;;;;4956516;28;20066;-74
2022/10/16 01:41:15;;;;;;;10.77;2.22;;;;;;;;;;4948065;28;20899;-76
2022/10/16 01:43:56;;;;;;;13.13;2.40;;;;;;;;;;4956072;28;20065;-76
2022/10/16 01:46:22;;;;;;;13.32;2.42;;;;;;;;;;4955708;28;20035;-75
2022/10/16 01:48:49;;;;;;;15.15;2.17;;;;;;;;;;4955974;28;20874;-76
2022/10/16 01:51:16;;;;;;;10.60;2.00;;;;;;;;;;4957718;28;20124;-76
2022/10/16 01:53:43;;;;;;;14.18;2.28;;;;;;;;;;4955640;28;20034;-75
2022/10/16 01:56:09;;;;;;;12.77;2.28;;;;;;;;;;4958580;28;20859;-76
2022/10/16 01:58:38;;;;;;;9.85;1.73;;;;;;;;;;4956900;28;20247;-75
2022/10/16 02:01:06;;;;;;;9.98;1.85;;;;;;;;;;4956060;28;20031;-75
2022/10/16 02:03:37;;;;;;;11.73;2.05;;;;;;;;;;4953978;28;20026;-76
2022/10/16 02:06:02;;;;;;;7.60;1.88;;;;;;;;;;4957522;28;20038;-76
2022/10/16 02:08:29;;;;;;;7.78;1.60;;;;;;;;;;4969673;28;20035;-75
2022/10/16 02:10:55;;;;;;;10.45;2.00;;;;;;;;;;4955781;28;20741;-76
2022/10/16 02:13:27;;;;;;;16.88;4.25;;;;;;;;;;4956312;28;20034;-76
2022/10/16 02:15:53;;;;;;;11.25;4.40;;;;;;;;;;4954475;28;20034;-75
2022/10/16 02:18:22;;;;;;;15.85;5.05;;;;;;;;;;4948281;28;20942;-72
2022/10/16 02:21:13;;;;;;;11.25;2.45;;;;;;;;;;4956218;28;20050;-75
2022/10/16 02:23:39;;;;;;;;;;;;;;;;;;4953657;28;20193;-75
2022/10/16 02:26:07;;;;;;;28.13;5.57;;;;;;;;;;4971123;28;21171;-74
2022/10/16 02:28:58;;;;;;;33.25;6.78;;;;;;;;;;4955838;28;20442;-75
2022/10/16 02:31:27;;;;;;;25.05;5.15;;;;;;;;;;4952803;28;20537;-75
2022/10/16 02:33:54;;;;;;;26.58;5.78;;;;;;;;;;4956807;28;20041;-77
2022/10/16 02:36:23;;;;;;;22.35;5.97;;;;;;;;;;4954503;28;20081;-74
2022/10/16 02:39:06;;;;;;;24.63;6.20;;;;;;;;;;4952611;28;20931;-75
2022/10/16 02:41:31;;;;;;;21.27;5.00;;;;;;;;;;4953803;28;20064;-75
2022/10/16 02:43:57;;;;;;;15.52;4.40;;;;;;;;;;4937062;28;20897;-73
2022/10/16 02:46:22;;;;;;;18.45;6.65;;;;;;;;;;4952663;28;20140;-76
2022/10/16 02:48:52;;;;;;;20.77;6.60;;;;;;;;;;4936324;28;20048;-75
2022/10/16 02:51:18;;;;;;;24.02;6.28;;;;;;;;;;4935917;28;20042;-74
2022/10/16 02:53:43;;;;;;;24.27;6.32;;;;;;;;;;4952574;28;20058;-75
2022/10/16 02:56:09;;;;;;;23.67;5.40;;;;;;;;;;4952792;28;20141;-75
2022/10/16 02:58:36;;;;;;;14.43;5.68;;;;;;;;;;4931293;28;20110;-73
2022/10/16 03:01:02;;;;;;;11.57;3.90;;;;;;;;;;4951943;28;20681;-74
2022/10/16 03:03:27;;;;;;;12.32;3.55;;;;;;;;;;4922089;28;20108;-74
2022/10/16 03:05:52;;;;;;;12.02;5.35;;;;;;;;;;4951165;28;20034;-74
2022/10/16 03:08:23;;;;;;;10.02;4.70;;;;;;;;;;4951534;28;20601;-74
2022/10/16 03:10:48;;;;;;;11.85;4.75;;;;;;;;;;4952928;28;20038;-74
2022/10/16 03:13:13;;;;;;;11.52;3.97;;;;;;;;;;4970878;28;20038;-74
2022/10/16 03:15:39;;;;;;;9.80;5.07;;;;;;;;;;4969633;28;20137;-75
2022/10/16 03:18:07;;;;;;;14.48;4.28;;;;;;;;;;4955058;28;20736;-74
2022/10/16 03:20:32;;;;;;;13.13;4.57;;;;;;;;;;4954802;28;20073;-75
2022/10/16 03:22:58;;;;;;;10.73;5.95;;;;;;;;;;4957026;28;20083;-73
2022/10/16 03:25:23;;;;;;;14.05;4.32;;;;;;;;;;4945768;28;20081;-75
2022/10/16 03:27:51;;;;;;;17.38;3.20;;;;;;;;;;4961341;28;20100;-75
2022/10/16 03:30:17;;;;;;;20.95;2.90;;;;;;;;;;4963068;28;20250;-75
2022/10/16 03:32:43;;;;;;;20.60;2.92;;;;;;;;;;4956070;28;20030;-75
2022/10/16 03:35:09;;;;;;;13.25;2.65;;;;;;;;;;4955800;28;20035;-77
2022/10/16 03:37:34;;;;;;;13.25;2.92;;;;;;;;;;4953989;28;20152;-76
2022/10/16 03:39:59;;;;;;;13.75;4.97;;;;;;;;;;4954117;28;20037;-78
2022/10/16 03:42:27;;;;;;;17.38;5.18;;;;;;;;;;4966476;28;20068;-77
2022/10/16 03:44:53;;;;;;;15.43;2.65;;;;;;;;;;4956518;28;20037;-77
2022/10/16 03:47:21;;;;;;;15.00;2.58;;;;;;;;;;4954952;28;20038;-78
2022/10/16 03:49:47;;;;;;;12.70;2.42;;;;;;;;;;4958354;28;20046;-77
2022/10/16 03:52:13;;;;;;;12.52;2.55;;;;;;;;;;4959116;28;20042;-77
2022/10/16 03:54:38;;;;;;;14.23;4.03;;;;;;;;;;4954241;28;20034;-76
2022/10/16 03:57:04;;;;;;;18.95;4.43;;;;;;;;;;4956146;28;20141;-78
2022/10/16 03:59:30;;;;;;;13.65;3.28;;;;;;;;;;4951483;28;20031;-77
2022/10/16 04:01:57;;;;;;;14.65;4.95;;;;;;;;;;4957673;28;20031;-78
2022/10/16 04:04:24;;;;;;;12.95;2.95;;;;;;;;;;4960535;28;20048;-77
2022/10/16 04:06:49;;;;;;;25.20;3.25;;;;;;;;;;4967254;28;20872;-78
2022/10/16 04:09:15;;;;;;;28.17;4.07;;;;;;;;;;4966606;28;20081;-79
2022/10/16 04:11:41;;;;;;;30.20;4.15;;;;;;;;;;4958622;28;20041;-80
2022/10/16 04:14:07;;;;;;;36.90;4.35;;;;;;;;;;4958409;28;20838;-77
2022/10/16 04:16:35;;;;;;;33.72;3.75;;;;;;;;;;4957172;28;20038;-79
2022/10/16 04:19:01;;;;;;;30.25;3.85;;;;;;;;;;4942348;28;20810;-78
2022/10/16 04:21:26;;;;;;;35.03;4.47;;;;;;;;;;4956164;28;20038;-77
2022/10/16 04:23:52;;;;;;;36.08;4.78;;;;;;;;;;4956382;28;20034;-78
2022/10/16 04:26:18;;;;;;;34.97;4.95;;;;;;;;;;4975182;28;20125;-78
2022/10/16 04:28:43;;;;;;;43.13;5.57;;;;;;;;;;4959815;28;20067;-76
2022/10/16 04:31:09;;;;;;;41.15;6.40;;;;;;;;;;4959944;28;20034;-77
2022/10/16 04:33:35;;;;;;;42.08;5.70;;;;;;;;;;4958775;28;20045;-76
2022/10/16 04:36:01;;;;;;;31.73;4.88;;;;;;;;;;4956249;28;20030;-77
2022/10/16 04:38:29;;;;;;;39.78;5.40;;;;;;;;;;4963351;28;20115;-76
2022/10/16 04:40:55;;;;;;;36.53;5.10;;;;;;;;;;4947000;28;20051;-76
2022/10/16 04:43:22;;;;;;;38.67;4.90;;;;;;;;;;4960076;28;20030;-77
2022/10/16 04:45:47;;;;;;;27.17;3.88;;;;;;;;;;4946071;28;20353;-76
2022/10/16 04:48:13;;;;;;;29.42;4.20;;;;;;;;;;4954561;28;20224;-76
2022/10/16 04:50:38;;;;;;;19.42;3.20;;;;;;;;;;4950998;28;20528;-77
2022/10/16 04:53:04;;;;;;;27.27;3.65;;;;;;;;;;4954157;28;22700;-79
2022/10/16 04:55:38;;;;;;;20.67;2.95;;;;;;;;;;4945753;28;20176;-78
2022/10/16 04:58:04;;;;;;;16.05;2.78;;;;;;;;;;4934077;28;20200;-77
2022/10/16 05:00:34;;;;;;;24.02;3.53;;;;;;;;;;4950826;28;20038;-76
2022/10/16 05:03:01;;;;;;;20.75;4.35;;;;;;;;;;4959727;28;20076;-76
2022/10/16 05:05:29;;;;;;;14.90;2.50;;;;;;;;;;4955183;28;20053;-77
2022/10/16 05:07:55;;;;;;;16.83;3.15;;;;;;;;;;4947551;28;20043;-77
2022/10/16 05:10:21;;;;;;;15.50;3.67;;;;;;;;;;4967065;28;20057;-77
2022/10/16 05:12:51;;;;;;;21.33;3.80;;;;;;;;;;4963132;28;20139;-76
2022/10/16 05:15:16;;;;;;;22.90;8.10;;;;;;;;;;4950597;28;20145;-77
2022/10/16 05:17:45;;;;;;;26.25;7.97;;;;;;;;;;4952173;28;20087;-75
2022/10/16 05:20:13;;;;;;;25.48;9.10;;;;;;;;;;4949532;28;20283;-74
2022/10/16 05:22:39;;;;;;;27.13;8.55;;;;;;;;;;4913668;28;20061;-74
2022/10/16 05:25:07;;;;;;;20.38;7.78;;;;;;;;;;4945731;28;20038;-74
2022/10/16 05:27:32;;;;;;;35.15;10.55;;;;;;;;;;4954331;28;20520;-75
2022/10/16 05:29:57;;;;;;;20.30;6.85;;;;;;;;;;4955509;28;20049;-71
2022/10/16 05:32:25;;;;;;;26.20;8.88;;;;;;;;;;4945707;28;20048;-75
2022/10/16 05:34:50;;;;;;;24.92;10.30;;;;;;;;;;4955458;28;20039;-74
2022/10/16 05:37:16;;;;;;;22.40;8.93;;;;;;;;;;4942614;28;20045;-73
2022/10/16 05:39:44;;;;;;;15.00;6.85;;;;;;;;;;4954782;28;20655;-74
2022/10/16 05:42:15;;;;;;;32.08;8.27;;;;;;;;;;4949400;28;20045;-73
2022/10/16 05:44:47;;;;;;;32.15;8.40;;;;;;;;;;4953916;28;20030;-73
2022/10/16 05:47:29;;;;;;;34.15;9.43;;;;;;;;;;4945391;28;20096;-73
2022/10/16 05:50:06;;;;;;;23.38;5.60;;;;;;;;;;4961166;28;21188;-74
2022/10/16 05:52:37;;;;;;;24.33;7.82;;;;;;;;;;4952273;28;20761;-72
2022/10/16 05:55:06;;;;;;;35.38;8.85;;;;;;;;;;4959167;28;20056;-73
2022/10/16 05:57:43;;;;;;;37.28;7.95;;;;;;;;;;4954929;28;21934;-73
2022/10/16 06:00:28;;;;;;;38.95;10.23;;;;;;;;;;4956420;28;20041;-72
2022/10/16 06:02:54;;;;;;;;;;;;;;;;;;4935134;28;20042;-72
2022/10/16 06:05:24;;;;;;;41.03;11.05;;;;;;;;;;4924011;28;20124;-72
2022/10/16 06:07:53;;;;;;;36.08;10.73;;;;;;;;;;4932131;28;20053;-73
2022/10/16 06:10:20;;;;;;;28.58;8.52;;;;;;;;;;4925070;28;20103;-72
2022/10/16 06:12:46;;;;;;;26.33;6.90;;;;;;;;;;4939869;28;20459;-72
2022/10/16 06:15:11;;;;;;;27.17;7.32;;;;;;;;;;4959565;28;20057;-73
2022/10/16 06:17:37;;;;;;;23.70;7.03;;;;;;;;;;4952966;28;20053;-72
2022/10/16 06:20:05;;;;;;;15.20;3.65;;;;;;;;;;4948920;28;20048;-73
2022/10/16 06:22:31;;;;;;;16.33;4.30;;;;;;;;;;4957542;28;20700;-72
2022/10/16 06:24:59;;;;;;;16.80;3.40;;;;;;;;;;4965936;28;20038;-72
2022/10/16 06:27:24;;;;;;;21.15;8.80;;;;;;;;;;4944197;28;20041;-72
2022/10/16 06:29:53;;;;;;;28.15;6.70;;;;;;;;;;4947913;28;20081;-73
2022/10/16 06:32:19;;;;;;;20.00;4.30;;;;;;;;;;4925264;28;21017;-73
2022/10/16 06:34:46;;;;;;;14.25;4.10;;;;;;;;;;4938504;28;20656;-71
2022/10/16 06:37:15;;;;;;;16.35;3.60;;;;;;;;;;4951356;28;20034;-73
2022/10/16 06:39:42;;;;;;;10.30;2.60;;;;;;;;;;4935024;28;20680;-71
2022/10/16 06:42:10;;;;;;;17.80;3.15;;;;;;;;;;4932119;28;20041;-74
2022/10/16 06:44:42;;;;;;;19.95;3.53;;;;;;;;;;4948589;28;20471;-74
2022/10/16 06:47:13;;;;;;;19.33;3.55;;;;;;;;;;4935211;28;20080;-73
2022/10/16 06:49:44;;;;;;;16.35;2.83;;;;;;;;;;4928658;28;20045;-73
2022/10/16 06:52:17;;;;;;;15.80;2.60;;;;;;;;;;4907946;28;20049;-73
2022/10/16 06:54:47;;;;;;;19.25;3.42;;;;;;;;;;4942471;28;20497;-72
2022/10/16 06:57:15;;;;;;;22.77;3.63;;;;;;;;;;4959965;28;20381;-73
2022/10/16 06:59:47;;;;;;;19.25;4.15;;;;;;;;;;4945505;28;20137;-73
2022/10/16 07:02:12;;;;;;;24.80;4.15;;;;;;;;;;4950865;28;20041;-72
2022/10/16 07:04:38;;;;;;;25.45;4.05;;;;;;;;;;4940715;28;22420;-72
2022/10/16 07:07:04;;;;;;;25.15;4.25;;;;;;;;;;4939059;28;20159;-72
2022/10/16 07:09:33;;;;;;;35.33;4.63;;;;;;;;;;4942087;28;20097;-72
2022/10/16 07:12:07;;;;;;;31.02;5.40;;;;;;;;;;4917444;28;20667;-73
2022/10/16 07:14:42;;;;;;;41.78;6.38;;;;;;;;;;4948547;28;20034;-72
2022/10/16 07:17:10;;;;;;;33.38;5.05;;;;;;;;;;4956327;28;20116;-71
2022/10/16 07:19:35;;;;;;;28.05;5.00;;;;;;;;;;4955663;28;20904;-72
2022/10/16 07:22:01;;;;;;;36.67;5.32;;;;;;;;;;4954687;28;20046;-73
2022/10/16 07:24:26;;;;;;;31.50;4.53;;;;;;;;;;4941306;28;20114;-72
2022/10/16 07:27:02;;;;;;;31.60;4.78;;;;;;;;;;4962433;28;20092;-72
2022/10/16 07:29:27;;;;;;;34.47;4.90;;;;;;;;;;4948782;28;20887;-72
2022/10/16 07:31:53;;;;;;;36.67;6.00;;;;;;;;;;4948761;28;20034;-73
2022/10/16 07:34:21;;;;;;;33.65;4.55;;;;;;;;;;4945670;28;20161;-72
2022/10/16 07:36:50;;;;;;;23.98;4.30;;;;;;;;;;4953356;28;20042;-73
2022/10/16 07:39:16;;;;;;;28.88;4.75;;;;;;;;;;4957050;28;20065;-73
2022/10/16 07:41:44;;;;;;;23.92;3.70;;;;;;;;;;4957443;28;20885;-74
2022/10/16 07:44:12;;;;;;;28.98;4.18;;;;;;;;;;4952283;28;20133;-71
2022/10/16 07:46:41;;;;;;;31.40;4.80;;;;;;;;;;4956798;28;20734;-71
2022/10/16 07:49:09;;;;;;;23.52;3.53;;;;;;;;;;4957676;28;20046;-72
2022/10/16 07:51:34;;;;;;;30.63;4.68;;;;;;;;;;4921571;28;20494;-72
2022/10/16 07:54:00;;;;;;;24.20;3.92;;;;;;;;;;4938985;28;20213;-72
2022/10/16 07:56:25;;;;;;;22.30;4.05;;;;;;;;;;4958346;28;20068;-71
2022/10/16 07:58:51;;;;;;;27.08;5.00;;;;;;;;;;4954757;28;20038;-71
2022/10/16 08:01:17;;;;;;;23.48;4.18;;;;;;;;;;4966111;28;20164;-72
2022/10/16 08:03:44;;;;;;;23.48;4.32;;;;;;;;;;4952298;28;20562;-71
2022/10/16 08:06:10;;;;;;;27.33;4.50;;;;;;;;;;4952991;28;21763;-72
2022/10/16 08:08:37;;;;;;;20.50;3.47;;;;;;;;;;4953641;28;20103;-73
2022/10/16 08:11:03;;;;;;;24.75;3.38;;;;;;;;;;4957114;28;20057;-73
2022/10/16 08:13:29;;;;;;;25.30;4.32;;;;;;;;;;4948625;28;20072;-72
2022/10/16 08:15:55;;;;;;;28.02;4.60;;;;;;;;;;4968899;28;20102;-72
2022/10/16 08:18:20;;;;;;;22.92;3.80;;;;;;;;;;4949576;28;20041;-72
2022/10/16 08:20:45;;;;;;;23.67;4.10;;;;;;;;;;4958872;28;20589;-73
2022/10/16 08:23:11;;;;;;;26.63;4.22;;;;;;;;;;4952823;28;20039;-71
2022/10/16 08:25:37;;;;;;;25.08;4.20;;;;;;;;;;4969247;28;20084;-71
2022/10/16 08:28:05;;;;;;;24.38;3.97;;;;;;;;;;4959676;28;20808;-71
2022/10/16 08:30:30;;;;;;;27.00;4.60;;;;;;;;;;4956548;28;20144;-72
2022/10/16 08:32:57;;;;;;;21.10;3.90;;;;;;;;;;4957886;28;20038;-71
2022/10/16 08:35:27;;;;;;;19.15;4.25;;;;;;;;;;4957410;28;20042;-71
2022/10/16 08:37:53;;;;;;;23.10;3.75;;;;;;;;;;4957249;28;23696;-70
2022/10/16 08:40:21;;;;;;;20.30;3.50;;;;;;;;;;4957776;28;20042;-73
2022/10/16 08:42:49;;;;;;;27.55;4.13;;;;;;;;;;4958625;28;20038;-73
2022/10/16 08:45:33;;;;;;;21.92;3.70;;;;;;;;;;4959041;28;20034;-72
2022/10/16 08:48:17;;;;;;;22.65;3.65;;;;;;;;;;4943179;28;20798;-73
2022/10/16 08:50:43;;;;;;;23.27;3.25;;;;;;;;;;4959244;28;20858;-72
2022/10/16 08:53:17;;;;;;;24.65;4.00;;;;;;;;;;4971621;28;20034;-71
2022/10/16 08:55:49;;;;;;;28.98;4.10;;;;;;;;;;4957495;28;20863;-72
2022/10/16 08:58:15;;;;;;;26.60;4.38;;;;;;;;;;4958557;28;20109;-72
2022/10/16 09:00:41;;;;;;;33.22;4.78;;;;;;;;;;4956508;28;20053;-73
2022/10/16 09:03:13;;;;;;;29.67;5.00;;;;;;;;;;4958471;28;20022;-72
2022/10/16 09:05:42;;;;;;;27.00;3.60;;;;;;;;;;4957379;28;20068;-72
2022/10/16 09:08:36;;;;;;;24.38;3.30;;;;;;;;;;4970813;28;20046;-71
2022/10/16 09:11:03;;;;;;;22.95;3.38;;;;;;;;;;4938692;28;20072;-71
2022/10/16 09:13:47;;;;;;;29.58;3.85;;;;;;;;;;4976042;28;20076;-72
2022/10/16 09:16:17;;;;;;;25.35;3.75;;;;;;;;;;4958306;28;20058;-72
2022/10/16 09:18:48;;;;;;;20.83;4.35;;;;;;;;;;4956108;28;20038;-72
2022/10/16 09:21:15;;;;;;;22.83;4.10;;;;;;;;;;4958038;28;20117;-70
2022/10/16 09:23:46;;;;;;;24.20;3.88;;;;;;;;;;4958033;28;20036;-70
2022/10/16 09:26:13;;;;;;;28.55;3.88;;;;;;;;;;4959332;28;20030;-71
2022/10/16 09:28:42;;;;;;;27.30;4.22;;;;;;;;;;4957306;28;20033;-73
2022/10/16 09:31:18;;;;;;;21.20;3.65;;;;;;;;;;4956974;28;20042;-70
2022/10/16 09:33:44;;;;;;;24.20;3.83;;;;;;;;;;4954704;28;22318;-71
2022/10/16 09:36:10;;;;;;;23.35;3.53;;;;;;;;;;4961072;28;20638;-69
2022/10/16 09:38:37;;;;;;;23.50;3.55;;;;;;;;;;4956943;28;20026;-69
2022/10/16 09:41:13;;;;;;;27.02;4.10;;;;;;;;;;4949078;28;20173;-68
2022/10/16 09:43:46;;;;;;;23.60;3.78;;;;;;;;;;4969457;28;20034;-70
2022/10/16 09:46:30;;;;;;;26.40;4.10;;;;;;;;;;4957653;28;20042;-71
2022/10/16 09:49:18;;;;;;;19.55;2.88;;;;;;;;;;4955993;28;20068;-70
2022/10/16 09:51:43;;;;;;;21.15;3.30;;;;;;;;;;4953516;28;20058;-71
2022/10/16 09:54:08;;;;;;;23.63;3.80;;;;;;;;;;4956160;28;20040;-70
2022/10/16 09:56:41;;;;;;;25.30;3.63;;;;;;;;;;4957087;28;20026;-71
2022/10/16 09:59:13;;;;;;;31.42;3.60;;;;;;;;;;4958849;28;20140;-70
2022/10/16 10:01:44;;;;;;;19.77;3.35;;;;;;;;;;4955639;28;20030;-71
2022/10/16 10:04:10;;;;;;;23.27;4.05;;;;;;;;;;4954349;28;20056;-69
2022/10/16 10:06:39;;;;;;;20.05;3.05;;;;;;;;;;4956349;28;20082;-67
2022/10/16 10:09:16;;;;;;;22.50;3.15;;;;;;;;;;4955941;28;20627;-73
2022/10/16 10:11:43;;;;;;;30.15;3.72;;;;;;;;;;4956143;28;20030;-72
2022/10/16 10:14:17;;;;;;;25.55;4.50;;;;;;;;;;4956389;28;20038;-72
2022/10/16 10:16:43;;;;;;;25.75;4.80;;;;;;;;;;4955515;28;20034;-72
2022/10/16 10:19:22;;;;;;;26.25;3.90;;;;;;;;;;4971558;28;20084;-72
2022/10/16 10:21:48;;;;;;;25.55;3.92;;;;;;;;;;4956575;28;20669;-72
2022/10/16 10:24:16;;;;;;;31.35;3.60;;;;;;;;;;4954385;28;22474;-71
2022/10/16 10:26:47;;;;;;;27.98;4.22;;;;;;;;;;4955451;28;20160;-73
2022/10/16 10:29:18;;;;;;;25.65;4.10;;;;;;;;;;4955192;28;20172;-74
2022/10/16 10:31:43;;;;;;;24.92;4.57;;;;;;;;;;4969039;28;20038;-72
2022/10/16 10:34:09;;;;;;;27.40;4.03;;;;;;;;;;4955790;28;20113;-74
2022/10/16 10:36:38;;;;;;;23.17;3.55;;;;;;;;;;4953836;28;20133;-73
2022/10/16 10:39:08;;;;;;;21.95;3.80;;;;;;;;;;4955423;28;20072;-72
2022/10/16 10:41:52;;;;;;;22.23;3.63;;;;;;;;;;4956086;28;20034;-73
2022/10/16 10:44:27;;;;;;;17.77;3.90;;;;;;;;;;4952418;28;20038;-72
2022/10/16 10:46:53;;;;;;;25.23;3.63;;;;;;;;;;4954761;28;20042;-73
2022/10/16 10:49:30;;;;;;;22.83;3.50;;;;;;;;;;4953302;28;20065;-71
2022/10/16 10:52:05;;;;;;;21.35;3.47;;;;;;;;;;4955127;28;20068;-72
2022/10/16 10:54:52;;;;;;;20.77;3.05;;;;;;;;;;4954761;28;20034;-73
2022/10/16 10:57:39;;;;;;;22.20;3.28;;;;;;;;;;4955564;28;20034;-72
2022/10/16 11:00:20;;;;;;;22.85;3.85;;;;;;;;;;4953358;28;20100;-74
2022/10/16 11:02:58;;;;;;;24.00;3.78;;;;;;;;;;4956247;28;20874;-73
2022/10/16 11:05:29;;;;;;;21.58;3.63;;;;;;;;;;4953119;28;20229;-74
2022/10/16 11:08:13;;;;;;;20.70;3.15;;;;;;;;;;4954621;28;20117;-74
2022/10/16 11:10:47;;;;;;;21.65;3.78;;;;;;;;;;4955232;28;20050;-73
2022/10/16 11:13:32;;;;;;;21.63;3.05;;;;;;;;;;4961425;28;20046;-72
2022/10/16 11:15:59;;;;;;;23.73;3.72;;;;;;;;;;4960974;28;20038;-73
2022/10/16 11:18:32;;;;;;;23.25;3.42;;;;;;;;;;4963246;28;20266;-71
2022/10/16 11:21:00;;;;;;;18.40;3.33;;;;;;;;;;4961612;28;20158;-73
2022/10/16 11:23:41;;;;;;;23.27;3.58;;;;;;;;;;4961658;28;20037;-73
2022/10/16 11:26:07;;;;;;;;;;;;;;;;;;4960929;28;20811;-71
2022/10/16 11:28:35;;;;;;;22.00;3.20;;;;;;;;;;4962321;28;19914;-70
2022/10/16 11:31:20;;;;;;;19.90;3.20;;;;;;;;;;4962080;28;20285;-69
2022/10/16 11:33:51;;;;;;;18.42;3.35;;;;;;;;;;4961308;28;21103;-72
2022/10/16 11:36:19;;;;;;;18.80;3.47;;;;;;;;;;4962281;28;20038;-71
2022/10/16 11:38:58;;;;;;;23.42;4.20;;;;;;;;;;4951889;28;20056;-71
2022/10/16 11:41:34;;;;;;;26.55;3.95;;;;;;;;;;4963076;28;20781;-71
2022/10/16 11:44:16;;;;;;;24.02;4.25;;;;;;;;;;4964188;28;20048;-71
2022/10/16 11:46:45;;;;;;;23.55;2.83;;;;;;;;;;4963327;28;20034;-71
2022/10/16 11:49:15;;;;;;;25.08;3.60;;;;;;;;;;4964352;28;20121;-71
2022/10/16 11:52:01;;;;;;;34.53;4.57;;;;;;;;;;4962075;28;20036;-70
2022/10/16 11:54:44;;;;;;;28.42;3.83;;;;;;;;;;4964363;28;20136;-68
2022/10/16 11:57:23;;;;;;;19.98;3.10;;;;;;;;;;4963464;28;20034;-70
2022/10/16 11:59:51;;;;;;;20.13;3.45;;;;;;;;;;4964785;28;20097;-70
2022/10/16 12:02:35;;;;;;;27.38;3.45;;;;;;;;;;4959675;28;20030;-70
2022/10/16 12:05:00;;;;;;;19.83;3.08;;;;;;;;;;4962403;28;20206;-72
2022/10/16 12:07:31;;;;;;;23.48;3.17;;;;;;;;;;4964250;28;20634;-69
2022/10/16 12:10:00;;;;;;;18.50;3.20;;;;;;;;;;4963643;28;20038;-72
2022/10/16 12:12:37;;;;;;;23.75;3.38;;;;;;;;;;4962422;28;20045;-71
2022/10/16 12:15:25;;;;;;;18.70;3.05;;;;;;;;;;4977268;28;20038;-72
2022/10/16 12:17:53;;;;;;;20.80;3.10;;;;;;;;;;4963447;28;20080;-70
2022/10/16 12:20:47;;;;;;;20.95;3.33;;;;;;;;;;4960114;28;20068;-70
2022/10/16 12:23:19;;;;;;;23.80;3.38;;;;;;;;;;4953776;28;20042;-71
2022/10/16 12:25:53;;;;;;;21.83;3.33;;;;;;;;;;4960151;28;20042;-70
2022/10/16 12:28:20;;;;;;;22.60;3.40;;;;;;;;;;4959282;28;20118;-71
2022/10/16 12:30:56;;;;;;;24.48;3.80;;;;;;;;;;4959499;28;20806;-71
2022/10/16 12:33:24;;;;;;;21.88;3.28;;;;;;;;;;4958584;28;20044;-71
2022/10/16 12:35:50;;;;;;;26.65;3.58;;;;;;;;;;4959672;28;20580;-70
2022/10/16 12:38:17;;;;;;;23.70;3.95;;;;;;;;;;4960266;28;20156;-70
2022/10/16 12:40:44;;;;;;;19.83;3.38;;;;;;;;;;4959532;28;20076;-70
2022/10/16 12:43:32;;;;;;;25.83;3.20;;;;;;;;;;4960364;28;20164;-71
2022/10/16 12:46:21;;;;;;;22.20;3.45;;;;;;;;;;4950768;28;20037;-71
2022/10/16 12:48:50;;;;;;;16.45;2.90;;;;;;;;;;4952374;28;20037;-71
2022/10/16 12:51:23;;;;;;;19.50;3.13;;;;;;;;;;4958908;28;21129;-72
2022/10/16 12:54:06;;;;;;;20.88;3.25;;;;;;;;;;4948864;28;20042;-71
2022/10/16 12:56:38;;;;;;;15.18;2.20;;;;;;;;;;4957957;28;20643;-72
2022/10/16 12:59:09;;;;;;;21.08;3.30;;;;;;;;;;4949893;28;20213;-71
2022/10/16 13:01:53;;;;;;;24.02;3.00;;;;;;;;;;4972736;28;20861;-71
2022/10/16 13:04:19;;;;;;;17.48;2.60;;;;;;;;;;4960019;28;20038;-69
2022/10/16 13:06:44;;;;;;;17.42;3.00;;;;;;;;;;4956848;28;20918;-71
2022/10/16 13:09:18;;;;;;;21.02;3.40;;;;;;;;;;4957599;28;20034;-71
2022/10/16 13:12:04;;;;;;;20.30;3.03;;;;;;;;;;4959429;28;20037;-70
2022/10/16 13:14:32;;;;;;;23.60;3.45;;;;;;;;;;4925238;28;20672;-70
2022/10/16 13:16:58;;;;;;;17.20;2.53;;;;;;;;;;4957217;28;20946;-71
2022/10/16 13:19:35;;;;;;;23.02;3.53;;;;;;;;;;4974869;28;20030;-70
2022/10/16 13:22:16;;;;;;;31.90;3.78;;;;;;;;;;4957534;28;20030;-70
2022/10/16 13:25:01;;;;;;;19.92;3.00;;;;;;;;;;4958336;28;20034;-70
2022/10/16 13:27:32;;;;;;;19.05;3.15;;;;;;;;;;4957717;28;20034;-71
2022/10/16 13:30:17;;;;;;;18.45;2.90;;;;;;;;;;4958916;28;20137;-70
2022/10/16 13:32:47;;;;;;;19.38;3.05;;;;;;;;;;4958748;28;20049;-69
2022/10/16 13:35:20;;;;;;;15.65;2.58;;;;;;;;;;4972145;28;21129;-68
2022/10/16 13:37:45;;;;;;;25.80;3.33;;;;;;;;;;4957559;28;20146;-70
2022/10/16 13:40:20;;;;;;;24.75;2.83;;;;;;;;;;4950498;28;20276;-69
2022/10/16 13:42:48;;;;;;;21.13;3.20;;;;;;;;;;4965252;28;20159;-69
2022/10/16 13:45:24;;;;;;;19.10;3.05;;;;;;;;;;4974789;28;20040;-69
2022/10/16 13:47:50;;;;;;;14.93;2.88;;;;;;;;;;4960568;28;20034;-69
2022/10/16 13:50:17;;;;;;;19.58;3.10;;;;;;;;;;4958240;28;20092;-72
2022/10/16 13:52:42;;;;;;;16.58;2.50;;;;;;;;;;4957747;28;20041;-69
2022/10/16 13:55:11;;;;;;;17.75;2.70;;;;;;;;;;4957422;28;21827;-69
2022/10/16 13:57:37;;;;;;;29.00;3.35;;;;;;;;;;4958462;28;20034;-69
2022/10/16 14:00:03;;;;;;;17.50;2.65;;;;;;;;;;4958690;28;20034;-69
2022/10/16 14:02:36;;;;;;;10.07;1.67;;;;;;;;;;4956669;28;20037;-69
2022/10/16 14:05:03;;;;;;;17.13;2.25;;;;;;;;;;4932563;28;20038;-68
2022/10/16 14:07:31;;;;;;;19.38;2.72;;;;;;;;;;4958201;28;20038;-69
2022/10/16 14:10:03;;;;;;;16.15;2.38;;;;;;;;;;4957715;28;20042;-69
2022/10/16 14:12:29;;;;;;;20.05;2.78;;;;;;;;;;4958076;28;20042;-67
2022/10/16 14:14:56;;;;;;;18.88;2.60;;;;;;;;;;4958584;28;20045;-69
2022/10/16 14:17:23;;;;;;;15.60;2.25;;;;;;;;;;4957288;28;20812;-69
2022/10/16 14:19:50;;;;;;;20.10;2.65;;;;;;;;;;4957125;28;20045;-70
2022/10/16 14:22:29;;;;;;;19.88;2.83;;;;;;;;;;4958457;28;20109;-70
2022/10/16 14:24:54;;;;;;;21.20;2.80;;;;;;;;;;4957764;28;20207;-70
2022/10/16 14:27:28;;;;;;;15.93;2.33;;;;;;;;;;4957416;28;20034;-69
2022/10/16 14:30:13;;;;;;;17.65;3.05;;;;;;;;;;4955628;28;20050;-70
2022/10/16 14:32:40;;;;;;;18.27;3.15;;;;;;;;;;4956411;28;20031;-70
2022/10/16 14:35:21;;;;;;;14.80;3.00;;;;;;;;;;4954560;28;20038;-70
2022/10/16 14:37:50;;;;;;;13.98;3.90;;;;;;;;;;4956825;28;20632;-71
2022/10/16 14:40:26;;;;;;;19.15;6.57;;;;;;;;;;4957063;28;20060;-70
2022/10/16 14:42:54;;;;;;;20.85;6.45;;;;;;;;;;4956451;28;20064;-69
2022/10/16 14:45:21;;;;;;;20.55;5.88;;;;;;;;;;4956702;28;20062;-71
2022/10/16 14:48:03;;;;;;;16.70;4.47;;;;;;;;;;4951001;28;20506;-70